sensor_id;sensor_type;location;lat;lon;timestamp;noise_LAeq;noise_LA_min;noise_LA_max;noise_LA01;noise_LA95
67298;Laerm;65443;51.436;5.978;2023-04-01T00:00:10;34.87;33.57;36.40;;
67298;Laerm;65443;51.436;5.978;2023-04-01T00:00:20;35.83;34.10;41.25;;
67298;Laerm;65443;51.436;5.978;2023-04-01T00:00:30;35.40;33.71;38.77;;
67298;Laerm;65443;51.436;5.978;2023-04-01T00:00:41;35.11;33.34;42.47;;
67298;Laerm;65443;51.436;5.978;2023-04-01T00:00:52;42.54;33.92;56.18;;
67298;Laerm;65443;51.436;5.978;2023-04-01T00:01:03;40.69;38.63;44.84;;
67298;Laerm;65443;51.436;5.978;2023-04-01T00:01:14;40.42;37.20;44.24;;
67298;Laerm;65443;51.436;5.978;2023-04-01T00:01:24;37.06;34.89;41.40;;
67298;Laerm;65443;51.436;5.978;2023-04-01T00:01:35;36.82;34.68;44.89;;
67298;Laerm;65443;51.436;5.978;2023-04-01T00:01:45;36.54;34.58;46.27;;
67298;Laerm;65443;51.436;5.978;2023-04-01T00:01:56;35.92;34.30;38.09;;
67298;Laerm;65443;51.436;5.978;2023-04-01T00:02:06;36.30;34.23;39.60;;
67298;Laerm;65443;51.436;5.978;2023-04-01T00:02:16;39.30;36.76;54.80;;
67298;Laerm;65443;51.436;5.978;2023-04-01T00:02:27;39.61;37.57;42.76;;
67298;Laerm;65443;51.436;5.978;2023-04-01T00:02:37;40.49;38.18;48.98;;
67298;Laerm;65443;51.436;5.978;2023-04-01T00:02:48;40.75;38.54;44.45;;
67298;Laerm;65443;51.436;5.978;2023-04-01T00:02:58;40.38;38.35;43.21;;
67298;Laerm;65443;51.436;5.978;2023-04-01T00:03:08;39.82;37.68;42.98;;
67298;Laerm;65443;51.436;5.978;2023-04-01T00:03:19;39.25;37.75;42.17;;
67298;Laerm;65443;51.436;5.978;2023-04-01T00:03:30;40.52;38.45;44.65;;
67298;Laerm;65443;51.436;5.978;2023-04-01T00:03:43;39.54;37.25;49.13;;
67298;Laerm;65443;51.436;5.978;2023-04-01T00:03:53;39.18;37.32;48.25;;
67298;Laerm;65443;51.436;5.978;2023-04-01T00:04:04;39.97;36.89;43.11;;
67298;Laerm;65443;51.436;5.978;2023-04-01T00:04:15;38.27;35.98;43.48;;
67298;Laerm;65443;51.436;5.978;2023-04-01T00:04:25;37.01;35.18;39.95;;
67298;Laerm;65443;51.436;5.978;2023-04-01T00:04:36;35.83;33.83;39.37;;
67298;Laerm;65443;51.436;5.978;2023-04-01T00:04:46;37.45;35.02;40.95;;
67298;Laerm;65443;51.436;5.978;2023-04-01T00:04:56;39.28;36.69;41.71;;
67298;Laerm;65443;51.436;5.978;2023-04-01T00:05:07;40.52;38.08;48.96;;
67298;Laerm;65443;51.436;5.978;2023-04-01T00:05:17;39.03;36.33;44.63;;
67298;Laerm;65443;51.436;5.978;2023-04-01T00:05:28;40.94;36.59;55.05;;
67298;Laerm;65443;51.436;5.978;2023-04-01T00:05:38;40.55;35.43;46.20;;
67298;Laerm;65443;51.436;5.978;2023-04-01T00:05:48;36.93;35.11;40.77;;
67298;Laerm;65443;51.436;5.978;2023-04-01T00:05:59;37.73;35.27;44.40;;
67298;Laerm;65443;51.436;5.978;2023-04-01T00:06:13;36.22;33.75;41.75;;
67298;Laerm;65443;51.436;5.978;2023-04-01T00:06:24;34.45;32.90;43.44;;
67298;Laerm;65443;51.436;5.978;2023-04-01T00:06:34;34.19;32.84;37.33;;
67298;Laerm;65443;51.436;5.978;2023-04-01T00:06:45;34.65;32.44;38.67;;
67298;Laerm;65443;51.436;5.978;2023-04-01T00:06:57;36.99;34.09;43.41;;
67298;Laerm;65443;51.436;5.978;2023-04-01T00:07:07;36.37;34.04;47.59;;
67298;Laerm;65443;51.436;5.978;2023-04-01T00:07:18;36.06;34.23;44.57;;
67298;Laerm;65443;51.436;5.978;2023-04-01T00:07:28;34.63;32.32;42.74;;
67298;Laerm;65443;51.436;5.978;2023-04-01T00:07:38;38.32;32.80;46.80;;
67298;Laerm;65443;51.436;5.978;2023-04-01T00:07:49;38.42;35.48;43.68;;
67298;Laerm;65443;51.436;5.978;2023-04-01T00:08:00;56.23;35.41;66.15;;
67298;Laerm;65443;51.436;5.978;2023-04-01T00:08:10;64.24;53.23;69.60;;
67298;Laerm;65443;51.436;5.978;2023-04-01T00:08:21;59.68;51.92;65.80;;
67298;Laerm;65443;51.436;5.978;2023-04-01T00:08:31;62.12;53.86;68.84;;
67298;Laerm;65443;51.436;5.978;2023-04-01T00:08:42;61.66;54.22;66.65;;
67298;Laerm;65443;51.436;5.978;2023-04-01T00:08:52;76.40;58.85;83.83;;
67298;Laerm;65443;51.436;5.978;2023-04-01T00:09:03;81.14;77.31;84.47;;
67298;Laerm;65443;51.436;5.978;2023-04-01T00:09:13;79.74;61.31;86.29;;
67298;Laerm;65443;51.436;5.978;2023-04-01T00:09:24;57.62;46.19;65.12;;
67298;Laerm;65443;51.436;5.978;2023-04-01T00:09:34;46.10;41.63;50.39;;
67298;Laerm;65443;51.436;5.978;2023-04-01T00:09:45;38.62;35.49;45.04;;
67298;Laerm;65443;51.436;5.978;2023-04-01T00:09:55;36.40;34.75;39.15;;
67298;Laerm;65443;51.436;5.978;2023-04-01T00:10:06;40.23;36.06;44.57;;
67298;Laerm;65443;51.436;5.978;2023-04-01T00:10:17;61.86;38.37;71.98;;
67298;Laerm;65443;51.436;5.978;2023-04-01T00:10:28;61.06;43.13;71.04;;
67298;Laerm;65443;51.436;5.978;2023-04-01T00:10:38;40.84;35.32;45.64;;
67298;Laerm;65443;51.436;5.978;2023-04-01T00:10:48;37.08;33.92;43.07;;
67298;Laerm;65443;51.436;5.978;2023-04-01T00:10:59;34.88;32.43;40.29;;
67298;Laerm;65443;51.436;5.978;2023-04-01T00:11:10;35.24;33.51;38.64;;
67298;Laerm;65443;51.436;5.978;2023-04-01T00:11:20;40.71;35.54;55.11;;
67298;Laerm;65443;51.436;5.978;2023-04-01T00:11:31;36.27;33.71;43.32;;
67298;Laerm;65443;51.436;5.978;2023-04-01T00:11:42;33.80;32.09;35.95;;
67298;Laerm;65443;51.436;5.978;2023-04-01T00:11:52;33.80;32.35;35.07;;
67298;Laerm;65443;51.436;5.978;2023-04-01T00:12:03;34.53;32.01;42.73;;
67298;Laerm;65443;51.436;5.978;2023-04-01T00:12:13;57.96;34.18;69.22;;
67298;Laerm;65443;51.436;5.978;2023-04-01T00:12:24;64.32;58.48;70.91;;
67298;Laerm;65443;51.436;5.978;2023-04-01T00:12:35;61.12;52.60;67.02;;
67298;Laerm;65443;51.436;5.978;2023-04-01T00:12:45;59.61;52.06;64.61;;
67298;Laerm;65443;51.436;5.978;2023-04-01T00:12:55;59.77;53.25;65.33;;
67298;Laerm;65443;51.436;5.978;2023-04-01T00:13:06;73.20;53.49;79.70;;
67298;Laerm;65443;51.436;5.978;2023-04-01T00:13:17;75.57;72.02;79.97;;
67298;Laerm;65443;51.436;5.978;2023-04-01T00:13:27;75.20;57.77;81.23;;
67298;Laerm;65443;51.436;5.978;2023-04-01T00:13:37;61.12;53.75;68.60;;
67298;Laerm;65443;51.436;5.978;2023-04-01T00:13:48;59.69;52.60;65.08;;
67298;Laerm;65443;51.436;5.978;2023-04-01T00:13:58;59.39;50.84;64.16;;
67298;Laerm;65443;51.436;5.978;2023-04-01T00:14:08;73.56;55.81;81.51;;
67298;Laerm;65443;51.436;5.978;2023-04-01T00:14:19;74.60;71.22;78.00;;
67298;Laerm;65443;51.436;5.978;2023-04-01T00:14:29;73.23;60.87;78.73;;
67298;Laerm;65443;51.436;5.978;2023-04-01T00:14:39;56.70;40.36;65.07;;
67298;Laerm;65443;51.436;5.978;2023-04-01T00:14:50;40.55;36.76;43.87;;
67298;Laerm;65443;51.436;5.978;2023-04-01T00:15:00;38.64;36.25;49.34;;
67298;Laerm;65443;51.436;5.978;2023-04-01T00:15:11;38.10;36.38;43.66;;
67298;Laerm;65443;51.436;5.978;2023-04-01T00:15:21;36.40;34.23;38.12;;
67298;Laerm;65443;51.436;5.978;2023-04-01T00:15:32;35.52;34.19;37.91;;
67298;Laerm;65443;51.436;5.978;2023-04-01T00:15:43;35.51;33.39;48.34;;
67298;Laerm;65443;51.436;5.978;2023-04-01T00:15:54;34.67;32.86;39.99;;
67298;Laerm;65443;51.436;5.978;2023-04-01T00:16:05;33.93;32.35;37.34;;
67298;Laerm;65443;51.436;5.978;2023-04-01T00:16:15;34.24;32.81;36.08;;
67298;Laerm;65443;51.436;5.978;2023-04-01T00:16:26;34.61;33.02;37.31;;
67298;Laerm;65443;51.436;5.978;2023-04-01T00:16:36;37.18;34.64;44.42;;
67298;Laerm;65443;51.436;5.978;2023-04-01T00:16:46;37.52;35.14;42.88;;
67298;Laerm;65443;51.436;5.978;2023-04-01T00:16:57;35.81;34.47;37.85;;
67298;Laerm;65443;51.436;5.978;2023-04-01T00:17:07;36.23;34.12;39.56;;
67298;Laerm;65443;51.436;5.978;2023-04-01T00:17:17;35.80;33.77;38.69;;
67298;Laerm;65443;51.436;5.978;2023-04-01T00:17:27;35.39;33.33;37.11;;
67298;Laerm;65443;51.436;5.978;2023-04-01T00:17:38;34.39;32.55;40.05;;
67298;Laerm;65443;51.436;5.978;2023-04-01T00:17:48;33.86;32.56;35.68;;
67298;Laerm;65443;51.436;5.978;2023-04-01T00:17:59;34.78;33.27;40.86;;
67298;Laerm;65443;51.436;5.978;2023-04-01T00:18:11;37.18;34.32;40.05;;
67298;Laerm;65443;51.436;5.978;2023-04-01T00:18:22;36.35;34.48;39.32;;
67298;Laerm;65443;51.436;5.978;2023-04-01T00:18:32;35.69;33.37;38.60;;
67298;Laerm;65443;51.436;5.978;2023-04-01T00:18:42;36.66;33.52;40.08;;
67298;Laerm;65443;51.436;5.978;2023-04-01T00:18:53;38.53;35.96;41.01;;
67298;Laerm;65443;51.436;5.978;2023-04-01T00:19:03;38.30;35.48;45.34;;
67298;Laerm;65443;51.436;5.978;2023-04-01T00:19:13;37.33;34.66;40.23;;
67298;Laerm;65443;51.436;5.978;2023-04-01T00:19:25;35.04;32.04;45.71;;
67298;Laerm;65443;51.436;5.978;2023-04-01T00:19:35;33.55;31.73;36.52;;
67298;Laerm;65443;51.436;5.978;2023-04-01T00:19:45;35.58;32.01;49.08;;
67298;Laerm;65443;51.436;5.978;2023-04-01T00:19:56;36.47;33.43;46.56;;
67298;Laerm;65443;51.436;5.978;2023-04-01T00:20:06;33.63;31.81;36.03;;
67298;Laerm;65443;51.436;5.978;2023-04-01T00:20:17;34.60;32.33;46.15;;
67298;Laerm;65443;51.436;5.978;2023-04-01T00:20:28;35.08;33.03;37.60;;
67298;Laerm;65443;51.436;5.978;2023-04-01T00:20:42;34.37;32.04;40.56;;
67298;Laerm;65443;51.436;5.978;2023-04-01T00:20:53;33.53;31.28;46.90;;
67298;Laerm;65443;51.436;5.978;2023-04-01T00:21:04;36.30;32.05;43.15;;
67298;Laerm;65443;51.436;5.978;2023-04-01T00:21:15;37.03;34.62;43.96;;
67298;Laerm;65443;51.436;5.978;2023-04-01T00:21:26;37.43;34.74;41.50;;
67298;Laerm;65443;51.436;5.978;2023-04-01T00:21:36;38.44;34.46;44.06;;
67298;Laerm;65443;51.436;5.978;2023-04-01T00:21:46;60.53;41.05;70.71;;
67298;Laerm;65443;51.436;5.978;2023-04-01T00:21:58;58.82;36.37;72.72;;
67298;Laerm;65443;51.436;5.978;2023-04-01T00:22:08;51.44;32.91;67.99;;
67298;Laerm;65443;51.436;5.978;2023-04-01T00:22:21;64.56;54.39;71.35;;
67298;Laerm;65443;51.436;5.978;2023-04-01T00:22:32;60.03;52.90;64.58;;
67298;Laerm;65443;51.436;5.978;2023-04-01T00:22:43;60.07;51.69;64.39;;
67298;Laerm;65443;51.436;5.978;2023-04-01T00:22:54;60.29;53.50;67.71;;
67298;Laerm;65443;51.436;5.978;2023-04-01T00:23:05;75.74;53.77;83.20;;
67298;Laerm;65443;51.436;5.978;2023-04-01T00:23:16;76.22;73.66;80.11;;
67298;Laerm;65443;51.436;5.978;2023-04-01T00:23:26;75.44;72.29;78.64;;
67298;Laerm;65443;51.436;5.978;2023-04-01T00:23:37;63.11;38.04;74.26;;
67298;Laerm;65443;51.436;5.978;2023-04-01T00:23:47;36.60;33.51;42.23;;
67298;Laerm;65443;51.436;5.978;2023-04-01T00:23:58;34.98;32.70;44.15;;
67298;Laerm;65443;51.436;5.978;2023-04-01T00:24:09;35.91;33.70;38.66;;
67298;Laerm;65443;51.436;5.978;2023-04-01T00:24:19;37.55;33.73;48.23;;
67298;Laerm;65443;51.436;5.978;2023-04-01T00:24:30;38.80;36.49;44.33;;
67298;Laerm;65443;51.436;5.978;2023-04-01T00:24:40;38.33;36.25;41.41;;
67298;Laerm;65443;51.436;5.978;2023-04-01T00:24:51;36.41;34.11;43.43;;
67298;Laerm;65443;51.436;5.978;2023-04-01T00:25:01;35.62;33.59;37.93;;
67298;Laerm;65443;51.436;5.978;2023-04-01T00:25:12;35.70;33.36;40.00;;
67298;Laerm;65443;51.436;5.978;2023-04-01T00:25:22;39.09;35.95;42.90;;
67298;Laerm;65443;51.436;5.978;2023-04-01T00:25:33;47.18;39.23;57.47;;
67298;Laerm;65443;51.436;5.978;2023-04-01T00:25:44;65.10;43.74;75.20;;
67298;Laerm;65443;51.436;5.978;2023-04-01T00:25:58;40.09;36.26;44.54;;
67298;Laerm;65443;51.436;5.978;2023-04-01T00:26:08;39.20;36.45;43.05;;
67298;Laerm;65443;51.436;5.978;2023-04-01T00:26:19;37.82;35.06;47.04;;
67298;Laerm;65443;51.436;5.978;2023-04-01T00:26:31;36.12;34.28;46.92;;
67298;Laerm;65443;51.436;5.978;2023-04-01T00:26:41;35.65;33.63;37.59;;
67298;Laerm;65443;51.436;5.978;2023-04-01T00:26:52;36.38;34.59;47.51;;
67298;Laerm;65443;51.436;5.978;2023-04-01T00:27:02;60.67;34.48;70.37;;
67298;Laerm;65443;51.436;5.978;2023-04-01T00:27:13;65.17;56.58;71.80;;
67298;Laerm;65443;51.436;5.978;2023-04-01T00:27:23;60.16;52.53;68.49;;
67298;Laerm;65443;51.436;5.978;2023-04-01T00:27:34;60.01;53.62;64.47;;
67298;Laerm;65443;51.436;5.978;2023-04-01T00:27:44;58.38;50.40;64.23;;
67298;Laerm;65443;51.436;5.978;2023-04-01T00:27:54;73.70;51.00;79.85;;
67298;Laerm;65443;51.436;5.978;2023-04-01T00:28:05;78.96;75.16;84.17;;
67298;Laerm;65443;51.436;5.978;2023-04-01T00:28:16;79.15;65.42;84.50;;
67298;Laerm;65443;51.436;5.978;2023-04-01T00:28:27;60.71;38.33;68.57;;
67298;Laerm;65443;51.436;5.978;2023-04-01T00:28:37;36.37;33.43;42.96;;
67298;Laerm;65443;51.436;5.978;2023-04-01T00:28:47;34.02;32.22;38.26;;
67298;Laerm;65443;51.436;5.978;2023-04-01T00:28:58;34.64;32.17;42.29;;
67298;Laerm;65443;51.436;5.978;2023-04-01T00:29:08;33.76;31.85;37.93;;
67298;Laerm;65443;51.436;5.978;2023-04-01T00:29:19;34.62;31.84;38.63;;
67298;Laerm;65443;51.436;5.978;2023-04-01T00:29:29;35.10;33.46;39.18;;
67298;Laerm;65443;51.436;5.978;2023-04-01T00:29:43;36.47;34.52;41.41;;
67298;Laerm;65443;51.436;5.978;2023-04-01T00:29:54;37.62;34.61;51.67;;
67298;Laerm;65443;51.436;5.978;2023-04-01T00:30:04;38.60;36.36;42.43;;
67298;Laerm;65443;51.436;5.978;2023-04-01T00:30:15;41.12;38.37;44.95;;
67298;Laerm;65443;51.436;5.978;2023-04-01T00:30:26;53.81;40.28;62.62;;
67298;Laerm;65443;51.436;5.978;2023-04-01T00:30:37;58.54;48.30;62.42;;
67298;Laerm;65443;51.436;5.978;2023-04-01T00:30:47;55.92;40.55;69.79;;
67298;Laerm;65443;51.436;5.978;2023-04-01T00:30:58;65.42;59.42;70.76;;
67298;Laerm;65443;51.436;5.978;2023-04-01T00:31:09;60.68;51.57;68.51;;
67298;Laerm;65443;51.436;5.978;2023-04-01T00:31:19;61.11;53.31;67.10;;
67298;Laerm;65443;51.436;5.978;2023-04-01T00:31:30;58.95;49.72;64.54;;
67298;Laerm;65443;51.436;5.978;2023-04-01T00:31:40;71.52;52.88;78.29;;
67298;Laerm;65443;51.436;5.978;2023-04-01T00:31:51;74.38;71.30;77.98;;
67298;Laerm;65443;51.436;5.978;2023-04-01T00:32:01;73.13;58.94;76.80;;
67298;Laerm;65443;51.436;5.978;2023-04-01T00:32:12;57.73;35.84;64.99;;
67298;Laerm;65443;51.436;5.978;2023-04-01T00:32:22;35.89;33.61;43.57;;
67298;Laerm;65443;51.436;5.978;2023-04-01T00:32:33;35.66;33.51;46.54;;
67298;Laerm;65443;51.436;5.978;2023-04-01T00:32:43;35.73;34.22;38.18;;
67298;Laerm;65443;51.436;5.978;2023-04-01T00:32:54;35.54;34.07;38.94;;
67298;Laerm;65443;51.436;5.978;2023-04-01T00:33:04;34.96;33.44;36.69;;
67298;Laerm;65443;51.436;5.978;2023-04-01T00:33:15;34.42;32.75;37.94;;
67298;Laerm;65443;51.436;5.978;2023-04-01T00:33:25;34.56;32.37;39.64;;
67298;Laerm;65443;51.436;5.978;2023-04-01T00:33:37;37.47;34.18;40.57;;
67298;Laerm;65443;51.436;5.978;2023-04-01T00:33:48;38.92;34.60;44.48;;
67298;Laerm;65443;51.436;5.978;2023-04-01T00:33:58;37.49;35.13;47.10;;
67298;Laerm;65443;51.436;5.978;2023-04-01T00:34:09;37.44;35.84;39.04;;
67298;Laerm;65443;51.436;5.978;2023-04-01T00:34:19;37.20;35.18;47.79;;
67298;Laerm;65443;51.436;5.978;2023-04-01T00:34:30;36.70;34.97;41.59;;
67298;Laerm;65443;51.436;5.978;2023-04-01T00:34:41;39.86;36.36;42.16;;
67298;Laerm;65443;51.436;5.978;2023-04-01T00:34:51;38.11;35.67;43.87;;
67298;Laerm;65443;51.436;5.978;2023-04-01T00:35:03;37.93;35.84;40.51;;
67298;Laerm;65443;51.436;5.978;2023-04-01T00:35:13;36.56;34.27;42.36;;
67298;Laerm;65443;51.436;5.978;2023-04-01T00:35:24;36.10;33.60;46.30;;
67298;Laerm;65443;51.436;5.978;2023-04-01T00:35:34;36.04;34.06;48.18;;
67298;Laerm;65443;51.436;5.978;2023-04-01T00:35:45;62.52;34.80;70.37;;
67298;Laerm;65443;51.436;5.978;2023-04-01T00:35:56;63.15;51.16;69.05;;
67298;Laerm;65443;51.436;5.978;2023-04-01T00:36:16;60.34;51.54;66.84;;
67298;Laerm;65443;51.436;5.978;2023-04-01T00:36:27;61.22;54.36;67.21;;
67298;Laerm;65443;51.436;5.978;2023-04-01T00:36:37;77.89;61.45;81.42;;
67298;Laerm;65443;51.436;5.978;2023-04-01T00:36:48;78.72;74.03;81.20;;
67298;Laerm;65443;51.436;5.978;2023-04-01T00:36:58;65.10;39.87;77.00;;
67298;Laerm;65443;51.436;5.978;2023-04-01T00:37:09;37.69;35.26;40.82;;
67298;Laerm;65443;51.436;5.978;2023-04-01T00:37:19;36.36;34.32;43.61;;
67298;Laerm;65443;51.436;5.978;2023-04-01T00:37:31;35.02;33.65;39.23;;
67298;Laerm;65443;51.436;5.978;2023-04-01T00:37:44;36.26;33.95;41.55;;
67298;Laerm;65443;51.436;5.978;2023-04-01T00:37:54;34.48;32.42;37.31;;
67298;Laerm;65443;51.436;5.978;2023-04-01T00:38:05;35.38;32.29;41.83;;
67298;Laerm;65443;51.436;5.978;2023-04-01T00:38:16;36.22;33.95;41.63;;
67298;Laerm;65443;51.436;5.978;2023-04-01T00:38:27;34.84;32.26;38.23;;
67298;Laerm;65443;51.436;5.978;2023-04-01T00:38:37;34.61;32.58;40.33;;
67298;Laerm;65443;51.436;5.978;2023-04-01T00:38:48;35.65;32.86;40.41;;
67298;Laerm;65443;51.436;5.978;2023-04-01T00:38:58;37.99;34.26;40.10;;
67298;Laerm;65443;51.436;5.978;2023-04-01T00:39:09;37.88;35.62;42.99;;
67298;Laerm;65443;51.436;5.978;2023-04-01T00:39:20;37.81;35.24;45.85;;
67298;Laerm;65443;51.436;5.978;2023-04-01T00:39:31;36.93;34.35;48.31;;
67298;Laerm;65443;51.436;5.978;2023-04-01T00:39:42;35.00;33.05;38.09;;
67298;Laerm;65443;51.436;5.978;2023-04-01T00:39:53;35.63;33.15;46.26;;
67298;Laerm;65443;51.436;5.978;2023-04-01T00:40:04;34.39;32.87;38.34;;
67298;Laerm;65443;51.436;5.978;2023-04-01T00:40:48;34.18;31.70;39.63;;
67298;Laerm;65443;51.436;5.978;2023-04-01T00:40:58;35.06;32.83;45.83;;
67298;Laerm;65443;51.436;5.978;2023-04-01T00:41:10;34.83;33.38;39.23;;
67298;Laerm;65443;51.436;5.978;2023-04-01T00:41:24;35.67;33.48;41.84;;
67298;Laerm;65443;51.436;5.978;2023-04-01T00:41:36;35.67;33.66;38.39;;
67298;Laerm;65443;51.436;5.978;2023-04-01T00:41:46;35.29;32.76;43.37;;
67298;Laerm;65443;51.436;5.978;2023-04-01T00:41:57;38.50;33.80;51.94;;
67298;Laerm;65443;51.436;5.978;2023-04-01T00:42:08;36.39;34.27;47.68;;
67298;Laerm;65443;51.436;5.978;2023-04-01T00:42:19;39.19;34.75;49.68;;
67298;Laerm;65443;51.436;5.978;2023-04-01T00:42:29;41.74;38.73;47.63;;
67298;Laerm;65443;51.436;5.978;2023-04-01T00:42:39;38.25;35.78;41.51;;
67298;Laerm;65443;51.436;5.978;2023-04-01T00:42:50;36.10;34.45;39.31;;
67298;Laerm;65443;51.436;5.978;2023-04-01T00:43:00;35.83;33.82;45.82;;
67298;Laerm;65443;51.436;5.978;2023-04-01T00:43:12;35.78;34.21;39.00;;
67298;Laerm;65443;51.436;5.978;2023-04-01T00:43:24;37.47;34.80;41.23;;
67298;Laerm;65443;51.436;5.978;2023-04-01T00:43:34;42.10;39.67;46.40;;
67298;Laerm;65443;51.436;5.978;2023-04-01T00:43:46;40.76;37.33;54.84;;
67298;Laerm;65443;51.436;5.978;2023-04-01T00:44:17;37.43;35.07;43.67;;
67298;Laerm;65443;51.436;5.978;2023-04-01T00:44:29;38.08;34.25;48.08;;
67298;Laerm;65443;51.436;5.978;2023-04-01T00:44:40;38.09;35.64;42.54;;
67298;Laerm;65443;51.436;5.978;2023-04-01T00:44:51;38.76;36.20;45.83;;
67298;Laerm;65443;51.436;5.978;2023-04-01T00:45:23;39.86;35.58;50.05;;
67298;Laerm;65443;51.436;5.978;2023-04-01T00:45:36;38.18;35.07;54.48;;
67298;Laerm;65443;51.436;5.978;2023-04-01T00:45:48;37.09;34.43;42.90;;
67298;Laerm;65443;51.436;5.978;2023-04-01T00:45:58;40.87;38.51;43.94;;
67298;Laerm;65443;51.436;5.978;2023-04-01T00:46:09;40.91;37.59;46.72;;
67298;Laerm;65443;51.436;5.978;2023-04-01T00:46:19;36.57;33.40;41.16;;
67298;Laerm;65443;51.436;5.978;2023-04-01T00:46:30;35.75;33.89;38.66;;
67298;Laerm;65443;51.436;5.978;2023-04-01T00:46:40;36.02;34.12;46.88;;
67298;Laerm;65443;51.436;5.978;2023-04-01T00:46:50;36.50;33.56;43.66;;
67298;Laerm;65443;51.436;5.978;2023-04-01T00:47:02;36.56;34.88;39.59;;
67298;Laerm;65443;51.436;5.978;2023-04-01T00:47:13;37.55;34.56;39.48;;
67298;Laerm;65443;51.436;5.978;2023-04-01T00:47:23;36.85;34.77;39.28;;
67298;Laerm;65443;51.436;5.978;2023-04-01T00:47:35;37.30;34.92;41.01;;
67298;Laerm;65443;51.436;5.978;2023-04-01T00:47:46;38.44;35.87;46.55;;
67298;Laerm;65443;51.436;5.978;2023-04-01T00:47:56;36.18;33.06;41.80;;
67298;Laerm;65443;51.436;5.978;2023-04-01T00:48:20;37.58;34.81;40.42;;
67298;Laerm;65443;51.436;5.978;2023-04-01T00:48:33;37.84;35.07;40.81;;
67298;Laerm;65443;51.436;5.978;2023-04-01T00:48:45;36.78;34.42;43.34;;
67298;Laerm;65443;51.436;5.978;2023-04-01T00:48:57;35.79;33.68;40.80;;
67298;Laerm;65443;51.436;5.978;2023-04-01T00:49:07;36.48;33.16;38.79;;
67298;Laerm;65443;51.436;5.978;2023-04-01T00:49:20;34.93;32.64;41.68;;
67298;Laerm;65443;51.436;5.978;2023-04-01T00:49:33;34.64;32.21;47.50;;
67298;Laerm;65443;51.436;5.978;2023-04-01T00:49:46;35.43;32.74;46.50;;
67298;Laerm;65443;51.436;5.978;2023-04-01T00:49:57;37.89;34.32;47.20;;
67298;Laerm;65443;51.436;5.978;2023-04-01T00:50:07;36.27;33.44;40.68;;
67298;Laerm;65443;51.436;5.978;2023-04-01T00:50:18;36.56;34.40;40.07;;
67298;Laerm;65443;51.436;5.978;2023-04-01T00:50:28;36.33;34.34;40.87;;
67298;Laerm;65443;51.436;5.978;2023-04-01T00:50:40;36.91;34.18;43.24;;
67298;Laerm;65443;51.436;5.978;2023-04-01T00:50:52;36.82;33.56;39.88;;
67298;Laerm;65443;51.436;5.978;2023-04-01T00:51:05;37.43;34.48;45.07;;
67298;Laerm;65443;51.436;5.978;2023-04-01T00:51:25;44.86;36.33;57.53;;
67298;Laerm;65443;51.436;5.978;2023-04-01T00:51:37;41.43;38.52;48.28;;
67298;Laerm;65443;51.436;5.978;2023-04-01T00:51:50;40.77;36.54;43.21;;
67298;Laerm;65443;51.436;5.978;2023-04-01T00:52:02;38.36;33.45;42.63;;
67298;Laerm;65443;51.436;5.978;2023-04-01T00:52:14;36.34;33.21;39.57;;
67298;Laerm;65443;51.436;5.978;2023-04-01T00:52:25;34.80;33.17;43.25;;
67298;Laerm;65443;51.436;5.978;2023-04-01T00:52:35;34.57;33.05;37.87;;
67298;Laerm;65443;51.436;5.978;2023-04-01T00:52:46;36.34;33.32;45.17;;
67298;Laerm;65443;51.436;5.978;2023-04-01T00:52:56;35.97;33.62;38.02;;
67298;Laerm;65443;51.436;5.978;2023-04-01T00:53:07;36.73;34.47;44.21;;
67298;Laerm;65443;51.436;5.978;2023-04-01T00:53:18;38.19;35.60;40.64;;
67298;Laerm;65443;51.436;5.978;2023-04-01T00:53:29;37.10;35.06;40.48;;
67298;Laerm;65443;51.436;5.978;2023-04-01T00:53:41;36.99;33.79;40.24;;
67298;Laerm;65443;51.436;5.978;2023-04-01T00:53:53;43.06;36.42;51.65;;
67298;Laerm;65443;51.436;5.978;2023-04-01T00:54:05;43.49;36.61;57.89;;
67298;Laerm;65443;51.436;5.978;2023-04-01T00:54:17;41.49;35.64;52.31;;
67298;Laerm;65443;51.436;5.978;2023-04-01T00:54:29;38.72;34.73;49.12;;
67298;Laerm;65443;51.436;5.978;2023-04-01T00:54:40;36.14;34.40;39.70;;
67298;Laerm;65443;51.436;5.978;2023-04-01T00:54:54;35.39;33.67;37.11;;
67298;Laerm;65443;51.436;5.978;2023-04-01T00:55:06;42.33;34.59;54.95;;
67298;Laerm;65443;51.436;5.978;2023-04-01T00:55:18;36.49;34.46;39.40;;
67298;Laerm;65443;51.436;5.978;2023-04-01T00:55:30;36.10;33.95;38.03;;
67298;Laerm;65443;51.436;5.978;2023-04-01T00:55:43;37.90;35.07;48.12;;
67298;Laerm;65443;51.436;5.978;2023-04-01T00:56:07;37.91;34.92;43.96;;
67298;Laerm;65443;51.436;5.978;2023-04-01T00:56:21;61.93;35.55;73.34;;
67298;Laerm;65443;51.436;5.978;2023-04-01T00:56:50;61.51;53.29;67.20;;
67298;Laerm;65443;51.436;5.978;2023-04-01T00:57:07;75.96;52.00;83.61;;
67298;Laerm;65443;51.436;5.978;2023-04-01T00:57:20;77.08;56.44;83.51;;
67298;Laerm;65443;51.436;5.978;2023-04-01T00:57:33;54.67;37.72;64.76;;
67298;Laerm;65443;51.436;5.978;2023-04-01T00:57:44;36.96;34.66;40.06;;
67298;Laerm;65443;51.436;5.978;2023-04-01T00:57:56;35.75;33.36;43.34;;
67298;Laerm;65443;51.436;5.978;2023-04-01T00:58:07;35.62;33.76;38.29;;
67298;Laerm;65443;51.436;5.978;2023-04-01T00:58:19;40.01;34.41;43.29;;
67298;Laerm;65443;51.436;5.978;2023-04-01T00:58:33;41.48;38.05;51.02;;
67298;Laerm;65443;51.436;5.978;2023-04-01T00:58:49;40.28;36.75;50.70;;
67298;Laerm;65443;51.436;5.978;2023-04-01T00:59:01;62.75;41.24;70.80;;
67298;Laerm;65443;51.436;5.978;2023-04-01T00:59:47;61.54;52.27;67.33;;
67298;Laerm;65443;51.436;5.978;2023-04-01T00:59:49;69.03;52.14;79.24;;
67298;Laerm;65443;51.436;5.978;2023-04-01T01:00:04;75.86;72.47;79.14;;
67298;Laerm;65443;51.436;5.978;2023-04-01T01:00:17;64.87;39.96;77.39;;
67298;Laerm;65443;51.436;5.978;2023-04-01T01:00:27;38.79;35.74;41.51;;
67298;Laerm;65443;51.436;5.978;2023-04-01T01:00:38;37.04;35.03;40.12;;
67298;Laerm;65443;51.436;5.978;2023-04-01T01:00:48;39.19;36.24;43.02;;
67298;Laerm;65443;51.436;5.978;2023-04-01T01:01:00;40.95;36.51;52.12;;
67298;Laerm;65443;51.436;5.978;2023-04-01T01:01:11;41.33;38.83;47.45;;
67298;Laerm;65443;51.436;5.978;2023-04-01T01:01:22;39.23;36.78;42.39;;
67298;Laerm;65443;51.436;5.978;2023-04-01T01:01:34;37.72;35.61;43.18;;
67298;Laerm;65443;51.436;5.978;2023-04-01T01:01:45;37.34;34.93;47.36;;
67298;Laerm;65443;51.436;5.978;2023-04-01T01:01:55;37.59;35.98;45.32;;
67298;Laerm;65443;51.436;5.978;2023-04-01T01:02:07;37.23;35.22;41.49;;
67298;Laerm;65443;51.436;5.978;2023-04-01T01:02:18;37.01;34.81;46.30;;
67298;Laerm;65443;51.436;5.978;2023-04-01T01:02:28;39.86;36.75;43.11;;
67298;Laerm;65443;51.436;5.978;2023-04-01T01:02:42;40.30;37.65;46.06;;
67298;Laerm;65443;51.436;5.978;2023-04-01T01:02:53;38.58;35.47;44.69;;
67298;Laerm;65443;51.436;5.978;2023-04-01T01:03:03;39.40;35.84;42.24;;
67298;Laerm;65443;51.436;5.978;2023-04-01T01:03:13;39.48;37.36;41.68;;
67298;Laerm;65443;51.436;5.978;2023-04-01T01:03:24;39.10;36.17;42.22;;
67298;Laerm;65443;51.436;5.978;2023-04-01T01:03:34;38.08;35.96;41.45;;
67298;Laerm;65443;51.436;5.978;2023-04-01T01:03:44;41.28;38.14;43.37;;
67298;Laerm;65443;51.436;5.978;2023-04-01T01:03:55;38.18;34.42;42.84;;
67298;Laerm;65443;51.436;5.978;2023-04-01T01:04:05;36.77;34.11;38.89;;